Terminal Aerodrome Forecast
Issued by NWS Missoula, MT

Home | Current Version | Previous Version | Text Only | Print | Product List | Glossary On
Versions: 1 2 3 4 5 6 7 8 9 10 11 12 13 14 15 16 17 18 19 20 21 22 23 24
122
FTUS45 KMSO 240353 AAB
TAFBTM
TAF AMD
KBTM 240353Z 2404/2424 26006KT 6SM -SHSN OVC050
      TEMPO 2404/2405 2SM -SN BKN020
     FM240600 36007KT P6SM VCSH BKN050
     FM241000 34006KT 4SM -SN BR SCT020 OVC050=

USA.gov is the U.S. government's official web portal to all federal, state and local government web resources and services.